createdAt,value
2022-08-04T00:01:45.843Z,99533.50
2022-08-04T00:04:24.738Z,99534.88
2022-08-04T00:06:58.507Z,99517.84
2022-08-04T00:09:34.540Z,99525.13
2022-08-04T00:12:02.356Z,99533.50
2022-08-04T00:14:34.974Z,99532.69
2022-08-04T00:17:06.366Z,99519.47
2022-08-04T00:19:40.273Z,99531.03
2022-08-04T00:22:10.363Z,99524.81
2022-08-04T00:24:37.703Z,99527.78
2022-08-04T00:27:04.683Z,99497.78
2022-08-04T00:29:31.708Z,99528.59
2022-08-04T00:31:59.311Z,99530.22
2022-08-04T00:34:27.978Z,99526.47
2022-08-04T00:36:56.543Z,99527.00
2022-08-04T00:39:23.996Z,99531.31
2022-08-04T00:42:03.398Z,99524.31
2022-08-04T00:44:58.175Z,99525.13
2022-08-04T00:48:26.347Z,99523.22
2022-08-04T00:51:21.872Z,99518.31
2022-08-04T00:54:23.383Z,99533.72
2022-08-04T00:57:29.990Z,99540.72
2022-08-04T01:00:09.689Z,99537.75
2022-08-04T01:02:51.017Z,99550.47
2022-08-04T01:05:22.491Z,99538.84
2022-08-04T01:08:01.730Z,99546.38
2022-08-04T01:10:54.550Z,99550.69
2022-08-04T01:13:27.274Z,99547.47
2022-08-04T01:16:05.240Z,99529.34
2022-08-04T01:19:05.820Z,99549.13
2022-08-04T01:21:54.248Z,99552.88
2022-08-04T01:24:43.823Z,99535.31
2022-08-04T01:27:49.207Z,99543.94
2022-08-04T01:30:16.857Z,99545.28
2022-08-04T01:32:53.689Z,99550.69
2022-08-04T01:35:49.708Z,99545.81
2022-08-04T01:38:38.785Z,99547.41
2022-08-04T01:41:08.109Z,99534.66
2022-08-04T01:43:40.473Z,99549.75
2022-08-04T01:46:11.644Z,99540.56
2022-08-04T01:48:45.593Z,99547.31
2022-08-04T01:51:12.582Z,99538.94
2022-08-04T01:53:42.018Z,99532.47
2022-08-04T01:56:10.785Z,99526.78
2022-08-04T01:58:39.310Z,99532.41
2022-08-04T02:01:09.114Z,99524.78
2022-08-04T02:04:19.704Z,99531.59
2022-08-04T02:06:32.110Z,99532.66
2022-08-04T02:09:28.073Z,99505.84
2022-08-04T02:11:57.492Z,99537.75
2022-08-04T02:14:43.183Z,99520.72
2022-08-04T02:17:34.578Z,99524.13
2022-08-04T02:20:24.679Z,99531.97
2022-08-04T02:23:00.611Z,99526.56
2022-08-04T02:25:29.601Z,99537.63
2022-08-04T02:28:15.839Z,99527.66
2022-08-04T02:30:52.448Z,99516.00
2022-08-04T02:33:26.648Z,99530.53
2022-08-04T02:36:02.413Z,99460.97
2022-08-04T02:38:50.178Z,99513.66
2022-08-04T02:41:20.607Z,99465.13
2022-08-04T02:43:50.915Z,99517.88
2022-08-04T02:46:20.948Z,99518.34
2022-08-04T02:48:49.157Z,99519.94
2022-08-04T02:51:19.974Z,99500.19
2022-08-04T02:53:49.535Z,99493.78
2022-08-04T02:56:20.199Z,99516.03
2022-08-04T02:58:51.718Z,99515.25
2022-08-04T03:01:18.450Z,99483.84
2022-08-04T03:03:59.478Z,99491.72
2022-08-04T03:07:15.726Z,99510.53
2022-08-04T03:10:21.227Z,99516.25
2022-08-04T03:13:24.306Z,99513.03
2022-08-04T03:16:12.122Z,99512.53
2022-08-04T03:19:13.483Z,99511.41
2022-08-04T03:21:56.828Z,99496.50
2022-08-04T03:24:50.677Z,99512.97
2022-08-04T03:27:42.110Z,99511.03
2022-08-04T03:30:18.879Z,99510.81
2022-08-04T03:33:10.493Z,99503.78
2022-08-04T03:36:06.864Z,99514.78
2022-08-04T03:38:45.890Z,99508.84
2022-08-04T03:41:51.476Z,99508.97
2022-08-04T03:45:20.509Z,99514.16
2022-08-04T03:48:07.382Z,99516.03
2022-08-04T03:51:34.119Z,99511.19
2022-08-04T03:54:14.555Z,99515.22
2022-08-04T03:57:02.657Z,99512.78
2022-08-04T03:59:56.811Z,99508.47
2022-08-04T04:02:29.288Z,99506.03
2022-08-04T04:04:56.548Z,99502.50
2022-08-04T04:07:35.807Z,99502.50
2022-08-04T04:10:26.907Z,99507.59
2022-08-04T04:13:10.714Z,99515.44
2022-08-04T04:16:00.148Z,99517.56
2022-08-04T04:18:29.540Z,99518.03
2022-08-04T04:21:11.983Z,99500.13
2022-08-04T04:23:50.714Z,99515.78
2022-08-04T04:26:32.457Z,99510.97
2022-08-04T04:29:29.562Z,99515.53
2022-08-04T04:32:17.920Z,99514.97
2022-08-04T04:35:03.243Z,99525.75
2022-08-04T04:37:32.592Z,99517.69
2022-08-04T04:40:23.552Z,99515.50
2022-08-04T04:43:51.334Z,99517.47
2022-08-04T04:46:40.844Z,99528.09
2022-08-04T04:49:33.179Z,99526.56
2022-08-04T04:52:18.221Z,99523.16
2022-08-04T04:54:47.920Z,99525.59
2022-08-04T04:57:52.957Z,99526.97
2022-08-04T05:00:13.700Z,99530.00
2022-08-04T05:03:00.135Z,99525.94
2022-08-04T05:05:49.332Z,99529.41
2022-08-04T05:08:54.770Z,99528.38
2022-08-04T05:11:30.597Z,99525.69
2022-08-04T05:14:36.107Z,99504.09
2022-08-04T05:16:54.344Z,99521.38
2022-08-04T05:19:34.880Z,99532.50
2022-08-04T05:22:14.195Z,99539.81
2022-08-04T05:24:45.168Z,99537.97
2022-08-04T05:27:22.773Z,99546.38
2022-08-04T05:29:54.566Z,99533.44
2022-08-04T05:32:26.839Z,99545.91
2022-08-04T05:35:00.190Z,99529.72
2022-08-04T05:37:30.416Z,99537.84
2022-08-04T05:40:04.787Z,99528.09
2022-08-04T05:42:34.835Z,99546.47
2022-08-04T05:45:03.112Z,99524.59
2022-08-04T05:47:31.333Z,99538.34
2022-08-04T05:50:01.989Z,99534.03
2022-08-04T05:52:31.465Z,99535.66
2022-08-04T05:55:00.440Z,99541.84
2022-08-04T05:57:28.390Z,99530.50
2022-08-04T05:59:57.667Z,99549.69
2022-08-04T06:02:25.382Z,99560.78
2022-08-04T06:04:53.132Z,99549.13
2022-08-04T06:07:20.254Z,99546.41
2022-08-04T06:09:47.436Z,99545.00
2022-08-04T06:12:49.548Z,99548.72
2022-08-04T06:15:20.121Z,99547.59
2022-08-04T06:19:10.077Z,99555.13
2022-08-04T06:20:50.202Z,99551.00
2022-08-04T06:23:20.816Z,99552.28
2022-08-04T06:25:55.042Z,99554.09
2022-08-04T06:28:23.055Z,99538.25
2022-08-04T06:30:51.111Z,99507.31
2022-08-04T06:33:26.837Z,99543.88
2022-08-04T06:35:55.527Z,99545.84
2022-08-04T06:38:25.093Z,99531.59
2022-08-04T06:40:53.276Z,99548.16
2022-08-04T06:43:22.044Z,99547.97
2022-08-04T06:45:49.518Z,99546.16
2022-08-04T06:48:18.105Z,99538.81
2022-08-04T06:51:29.622Z,99560.53
2022-08-04T06:53:35.416Z,99553.59
2022-08-04T06:56:02.997Z,99564.59
2022-08-04T06:58:33.244Z,99552.34
2022-08-04T07:01:02.102Z,99553.38
2022-08-04T07:03:30.921Z,99540.50
2022-08-04T07:05:58.183Z,99551.84
2022-08-04T07:08:24.919Z,99543.75
2022-08-04T07:10:53.291Z,99555.22
2022-08-04T07:13:23.421Z,99545.13
2022-08-04T07:15:54.999Z,99520.88
2022-08-04T07:18:21.807Z,99553.69
2022-08-04T07:20:49.248Z,99528.00
2022-08-04T07:23:24.788Z,99513.78
2022-08-04T07:26:00.914Z,99519.31
2022-08-04T07:28:39.597Z,99535.63
2022-08-04T07:31:09.559Z,99528.41
2022-08-04T07:33:36.828Z,99509.94
2022-08-04T07:36:11.790Z,99531.38
2022-08-04T07:38:46.420Z,99526.75
2022-08-04T07:41:38.024Z,99534.38
2022-08-04T07:44:05.528Z,99528.09
2022-08-04T07:46:32.524Z,99531.19
2022-08-04T07:49:03.151Z,99529.25
2022-08-04T07:51:31.289Z,99481.00
2022-08-04T07:53:59.025Z,99531.94
2022-08-04T07:56:27.789Z,99516.94
2022-08-04T07:58:55.301Z,99522.34
2022-08-04T08:01:23.499Z,99510.69
2022-08-04T08:03:52.735Z,99502.63
2022-08-04T08:06:33.139Z,99517.44
2022-08-04T08:09:12.904Z,99524.34
2022-08-04T08:12:37.592Z,99516.13
2022-08-04T08:14:36.286Z,99508.03
2022-08-04T08:17:04.367Z,99514.69
2022-08-04T08:19:32.819Z,99522.34
2022-08-04T08:22:01.101Z,99522.13
2022-08-04T08:24:34.837Z,99497.69
2022-08-04T08:27:04.289Z,99515.53
2022-08-04T08:29:33.602Z,99509.34
2022-08-04T08:32:07.404Z,99504.66
2022-08-04T08:34:35.882Z,99507.88
2022-08-04T08:37:16.150Z,99490.81
2022-08-04T08:39:54.267Z,99500.97
2022-08-04T08:42:55.586Z,99510.38
2022-08-04T08:45:47.631Z,99507.41
2022-08-04T08:48:29.431Z,99504.69
2022-08-04T08:51:05.971Z,99510.44
2022-08-04T08:53:42.331Z,99501.38
2022-08-04T08:56:36.629Z,99502.00
2022-08-04T08:59:45.324Z,99512.00
2022-08-04T09:02:26.935Z,99510.41
2022-08-04T09:05:28.811Z,99502.22
2022-08-04T09:08:28.079Z,99496.91
2022-08-04T09:11:06.612Z,99500.34
2022-08-04T09:13:50.158Z,99503.50
2022-08-04T09:16:36.049Z,99496.56
2022-08-04T09:19:10.430Z,99500.09
2022-08-04T09:22:03.626Z,99495.19
2022-08-04T09:24:50.862Z,99503.50
2022-08-04T09:27:24.176Z,99495.06
2022-08-04T09:30:03.071Z,99503.75
2022-08-04T09:32:38.563Z,99500.13
2022-08-04T09:36:03.142Z,99499.44
2022-08-04T09:38:30.777Z,99492.84
2022-08-04T09:41:27.575Z,99492.25
2022-08-04T09:44:50.974Z,99448.94
2022-08-04T09:47:13.774Z,99478.47
2022-08-04T09:49:50.256Z,99488.22
2022-08-04T09:52:39.513Z,99489.97
2022-08-04T09:55:24.356Z,99482.19
2022-08-04T09:58:09.379Z,99462.59
2022-08-04T10:00:50.178Z,99462.56
2022-08-04T10:03:20.399Z,99451.41
2022-08-04T10:06:06.046Z,99467.69
2022-08-04T10:09:08.918Z,99474.22
2022-08-04T10:12:03.379Z,99464.78
2022-08-04T10:14:45.344Z,99468.56
2022-08-04T10:17:37.736Z,99468.03
2022-08-04T10:20:33.913Z,99455.31
2022-08-04T10:23:55.912Z,99452.31
2022-08-04T10:26:48.278Z,99454.50
2022-08-04T10:29:22.689Z,99438.41
2022-08-04T10:32:14.437Z,99448.00
2022-08-04T10:34:44.388Z,99450.38
2022-08-04T10:37:17.266Z,99443.06
2022-08-04T10:40:11.350Z,99444.16
2022-08-04T10:42:47.128Z,99445.28
2022-08-04T10:45:19.629Z,99445.19
2022-08-04T10:48:01.451Z,99438.75
2022-08-04T10:50:29.774Z,99438.59
2022-08-04T10:53:22.984Z,99433.13
2022-08-04T10:56:07.612Z,99439.84
2022-08-04T10:58:47.456Z,99422.50
2022-08-04T11:02:00.963Z,99422.44
2022-08-04T11:04:52.139Z,99437.28
2022-08-04T11:07:19.929Z,99439.28
2022-08-04T11:09:49.225Z,99432.19
2022-08-04T11:12:26.341Z,99440.06
2022-08-04T11:15:04.803Z,99433.56
2022-08-04T11:17:35.962Z,99427.63
2022-08-04T11:20:34.483Z,99415.06
2022-08-04T11:23:11.181Z,99431.63
2022-08-04T11:25:59.037Z,99435.50
2022-08-04T11:28:58.394Z,99442.84
2022-08-04T11:31:37.017Z,99411.22
2022-08-04T11:34:18.887Z,99425.44
2022-08-04T11:37:23.717Z,99428.84
2022-08-04T11:39:58.991Z,99416.13
2022-08-04T11:42:33.417Z,99413.13
2022-08-04T11:45:00.094Z,99414.50
2022-08-04T11:47:32.781Z,99419.63
2022-08-04T11:50:25.499Z,99419.47
2022-08-04T11:52:54.842Z,99416.94
2022-08-04T11:55:23.020Z,99431.03
2022-08-04T11:57:54.144Z,99415.31
2022-08-04T12:00:25.208Z,99416.72
2022-08-04T12:03:17.884Z,99414.69
2022-08-04T12:06:20.042Z,99409.31
2022-08-04T12:09:05.157Z,99414.91
2022-08-04T12:11:54.885Z,99420.97
2022-08-04T12:14:41.093Z,99413.63
2022-08-04T12:17:10.155Z,99415.31
2022-08-04T12:20:03.923Z,99369.16
2022-08-04T12:22:41.470Z,99398.69
2022-08-04T12:25:13.719Z,99385.94
2022-08-04T12:27:49.240Z,99389.38
2022-08-04T12:30:57.760Z,99397.88
2022-08-04T12:33:10.781Z,99398.22
2022-08-04T12:36:10.631Z,99393.81
2022-08-04T12:38:49.729Z,99383.91
2022-08-04T12:41:23.592Z,99376.50
2022-08-04T12:43:50.993Z,99389.00
2022-08-04T12:46:26.733Z,99382.56
2022-08-04T12:49:01.829Z,99383.19
2022-08-04T12:52:05.894Z,99382.88
2022-08-04T12:54:28.879Z,99380.34
2022-08-04T12:57:01.227Z,99367.69
2022-08-04T12:59:28.404Z,99381.22
2022-08-04T13:02:09.581Z,99367.28
2022-08-04T13:04:51.383Z,99377.47
2022-08-04T13:07:24.594Z,99381.41
2022-08-04T13:09:52.492Z,99361.38
2022-08-04T13:12:31.864Z,99364.59
2022-08-04T13:15:10.838Z,99361.84
2022-08-04T13:17:47.705Z,99359.13
2022-08-04T13:20:16.472Z,99351.28
2022-08-04T13:22:46.632Z,99355.25
2022-08-04T13:26:40.554Z,99347.34
2022-08-04T13:28:02.158Z,99351.78
2022-08-04T13:30:33.094Z,99352.09
2022-08-04T13:33:05.204Z,99362.63
2022-08-04T13:35:56.096Z,99345.59
2022-08-04T13:38:25.555Z,99325.75
2022-08-04T13:40:53.962Z,99334.38
2022-08-04T13:44:16.921Z,99352.22
2022-08-04T13:46:27.242Z,99347.66
2022-08-04T13:49:23.663Z,99347.41
2022-08-04T13:51:59.048Z,99324.78
2022-08-04T13:54:42.939Z,99331.28
2022-08-04T13:57:17.324Z,99323.41
2022-08-04T13:59:51.612Z,99322.53
2022-08-04T14:02:39.165Z,99330.84
2022-08-04T14:05:31.327Z,99328.66
2022-08-04T14:08:23.359Z,99330.31
2022-08-04T14:10:55.247Z,99295.16
2022-08-04T14:13:41.474Z,99320.53
2022-08-04T14:16:20.930Z,99313.00
2022-08-04T14:18:57.008Z,99321.28
2022-08-04T14:21:24.776Z,99319.84
2022-08-04T14:23:56.619Z,99313.25
2022-08-04T14:26:33.852Z,99301.47
2022-08-04T14:29:26.500Z,99300.03
2022-08-04T14:32:04.441Z,99297.59
2022-08-04T14:34:41.532Z,99296.53
2022-08-04T14:37:18.578Z,99300.19
2022-08-04T14:40:17.680Z,99281.38
2022-08-04T14:42:55.238Z,99278.09
2022-08-04T14:45:37.702Z,99283.59
2022-08-04T14:48:09.451Z,99280.53
2022-08-04T14:50:45.583Z,99281.91
2022-08-04T14:53:14.497Z,99280.34
2022-08-04T14:55:46.551Z,99282.69
2022-08-04T14:58:37.588Z,99277.22
2022-08-04T15:01:12.175Z,99276.94
2022-08-04T15:04:00.612Z,99261.88
2022-08-04T15:06:29.895Z,99274.59
2022-08-04T15:08:59.234Z,99276.13
2022-08-04T15:11:26.300Z,99281.09
2022-08-04T15:13:54.445Z,99275.09
2022-08-04T15:16:22.788Z,99257.66
2022-08-04T15:18:50.972Z,99257.94
2022-08-04T15:21:21.440Z,99249.81
2022-08-04T15:23:50.273Z,99242.91
2022-08-04T15:26:23.815Z,99268.16
2022-08-04T15:28:56.152Z,99242.56
2022-08-04T15:32:05.773Z,99253.28
2022-08-04T15:34:12.549Z,99262.94
2022-08-04T15:36:56.791Z,99266.13
2022-08-04T15:39:55.677Z,99270.00
2022-08-04T15:42:34.531Z,99253.16
2022-08-04T15:45:12.123Z,99266.63
2022-08-04T15:47:40.093Z,99252.34
2022-08-04T15:50:10.533Z,99261.22
2022-08-04T15:53:00.625Z,99253.91
2022-08-04T15:55:40.131Z,99244.03
2022-08-04T15:58:08.658Z,99255.56
2022-08-04T16:00:47.786Z,99252.72
2022-08-04T16:03:58.276Z,99243.56
2022-08-04T16:06:22.908Z,99254.44
2022-08-04T16:08:57.266Z,99244.72
2022-08-04T16:11:31.234Z,99247.53
2022-08-04T16:13:58.811Z,99244.47
2022-08-04T16:16:38.374Z,99233.53
2022-08-04T16:19:08.244Z,99231.81
2022-08-04T16:21:46.491Z,99229.69
2022-08-04T16:24:21.903Z,99229.09
2022-08-04T16:26:57.428Z,99216.47
2022-08-04T16:29:42.957Z,99215.56
2022-08-04T16:32:10.971Z,99220.66
2022-08-04T16:34:56.732Z,99214.16
2022-08-04T16:37:38.718Z,99197.03
2022-08-04T16:40:35.352Z,99204.09
2022-08-04T16:43:13.545Z,99204.28
2022-08-04T16:45:46.702Z,99194.41
2022-08-04T16:48:15.611Z,99202.06
2022-08-04T16:51:14.473Z,99207.53
2022-08-04T16:54:02.845Z,99192.28
2022-08-04T16:56:34.443Z,99200.94
2022-08-04T16:59:12.472Z,99195.09
2022-08-04T17:01:51.555Z,99203.63
2022-08-04T17:04:27.816Z,99189.00
2022-08-04T17:07:00.128Z,99193.22
2022-08-04T17:09:28.773Z,99183.09
2022-08-04T17:11:56.872Z,99178.44
2022-08-04T17:14:25.844Z,99195.63
2022-08-04T17:16:54.109Z,99178.56
2022-08-04T17:19:26.179Z,99191.94
2022-08-04T17:22:07.300Z,99185.59
2022-08-04T17:24:40.437Z,99189.81
2022-08-04T17:28:19.241Z,99185.97
2022-08-04T17:29:54.970Z,99172.75
2022-08-04T17:32:23.248Z,99187.94
2022-08-04T17:34:53.078Z,99169.16
2022-08-04T17:37:40.982Z,99181.41
2022-08-04T17:40:14.463Z,99182.03
2022-08-04T17:42:45.777Z,99174.25
2022-08-04T17:48:08.955Z,99193.41
2022-08-04T17:50:36.558Z,99195.34
2022-08-04T17:53:11.911Z,99183.31
2022-08-04T17:55:43.228Z,99159.41
2022-08-04T17:58:22.346Z,99185.78
2022-08-04T18:01:10.597Z,99189.66
2022-08-04T18:03:52.809Z,99193.06
2022-08-04T18:06:22.916Z,99179.75
2022-08-04T18:08:59.317Z,99202.78
2022-08-04T18:11:55.425Z,99194.69
2022-08-04T18:14:25.954Z,99187.31
2022-08-04T18:16:55.910Z,99209.28
2022-08-04T18:19:22.741Z,99200.16
2022-08-04T18:21:59.801Z,99200.47
2022-08-04T18:24:34.637Z,99202.84
2022-08-04T18:27:23.650Z,99214.47
2022-08-04T18:30:33.685Z,99208.50
2022-08-04T18:33:04.451Z,99233.41
2022-08-04T18:35:25.470Z,99224.41
2022-08-04T18:38:23.984Z,99215.69
2022-08-04T18:40:53.146Z,99212.53
2022-08-04T18:43:28.566Z,99179.84
2022-08-04T18:46:12.485Z,99225.00
2022-08-04T18:48:41.689Z,99226.81
2022-08-04T18:51:22.507Z,99229.31
2022-08-04T18:53:58.187Z,99219.28
2022-08-04T18:56:31.673Z,99238.09
2022-08-04T18:59:01.488Z,99234.28
2022-08-04T19:02:13.575Z,99230.66
2022-08-04T19:04:34.062Z,99237.03
2022-08-04T19:07:24.671Z,99243.22
2022-08-04T19:09:57.297Z,99243.44
2022-08-04T19:12:26.714Z,99215.44
2022-08-04T19:14:58.055Z,99246.50
2022-08-04T19:17:56.592Z,99253.16
2022-08-04T19:20:24.274Z,99225.72
2022-08-04T19:24:28.583Z,99252.44
2022-08-04T19:25:59.374Z,99241.13
2022-08-04T19:28:29.970Z,99256.72
2022-08-04T19:30:58.808Z,99202.94
2022-08-04T19:33:25.669Z,99187.03
2022-08-04T19:36:12.385Z,99269.13
2022-08-04T19:38:39.370Z,99268.16
2022-08-04T19:41:14.375Z,99283.59
2022-08-04T19:43:43.591Z,99242.53
2022-08-04T19:49:00.153Z,99282.84
2022-08-04T19:51:30.624Z,99288.13
2022-08-04T19:54:04.074Z,99287.69
2022-08-04T19:59:25.236Z,99293.75
2022-08-04T20:01:59.042Z,99274.75
2022-08-04T20:04:27.735Z,99313.25
2022-08-04T20:06:58.069Z,99311.09
2022-08-04T20:09:27.090Z,99297.06
2022-08-04T20:11:55.804Z,99281.41
2022-08-04T20:14:32.687Z,99296.59
2022-08-04T20:17:10.133Z,99287.22
2022-08-04T20:19:37.896Z,99285.09
2022-08-04T20:22:04.901Z,99312.72
2022-08-04T20:24:44.188Z,99280.84
2022-08-04T20:27:17.736Z,99306.97
2022-08-04T20:29:49.402Z,99256.09
2022-08-04T20:35:08.788Z,99287.94
2022-08-04T20:37:55.434Z,99295.47
2022-08-04T20:40:27.565Z,99301.25
2022-08-04T20:42:54.345Z,99310.50
2022-08-04T20:45:24.152Z,99306.88
2022-08-04T20:48:10.929Z,99288.34
2022-08-04T20:50:37.741Z,99304.97
2022-08-04T20:53:05.978Z,99280.56
2022-08-04T20:55:54.690Z,99296.00
2022-08-04T20:58:22.419Z,99312.09
2022-08-04T21:00:55.012Z,99287.72
2022-08-04T21:03:49.584Z,99299.31
2022-08-04T21:06:09.115Z,99288.13
2022-08-04T21:08:37.083Z,99295.47
2022-08-04T21:13:52.771Z,99285.66
2022-08-04T21:16:55.763Z,99326.19
2022-08-04T21:19:12.912Z,99324.94
2022-08-04T21:21:40.703Z,99300.44
2022-08-04T21:24:07.883Z,99327.78
2022-08-04T21:26:35.527Z,99320.97
2022-08-04T21:29:04.664Z,99253.94
2022-08-04T21:31:36.764Z,99324.41
2022-08-04T21:34:37.862Z,99117.91
2022-08-04T21:37:15.329Z,99301.47
2022-08-04T21:39:50.140Z,99368.44
2022-08-04T21:42:27.781Z,99289.88
2022-08-04T21:44:59.724Z,99323.53
2022-08-04T21:47:45.925Z,99293.28
2022-08-04T21:50:13.060Z,99313.84
2022-08-04T21:52:46.356Z,99321.09
2022-08-04T21:55:13.028Z,99332.69
2022-08-04T22:00:26.587Z,99338.13
2022-08-04T22:02:53.854Z,99304.00
2022-08-04T22:05:21.534Z,99334.72
2022-08-04T22:07:50.873Z,99338.59
2022-08-04T22:10:32.164Z,99306.63
2022-08-04T22:13:06.867Z,99303.78
2022-08-04T22:18:24.578Z,99282.91
2022-08-04T22:20:54.536Z,99325.91
2022-08-04T22:23:24.347Z,99339.72
2022-08-04T22:25:55.825Z,99284.13
2022-08-04T22:28:24.517Z,99331.16
2022-08-04T22:30:55.670Z,99322.22
2022-08-04T22:33:22.888Z,99312.47
2022-08-04T22:35:50.068Z,99297.34
2022-08-04T22:38:24.005Z,99288.31
2022-08-04T22:41:12.246Z,99319.47
2022-08-04T22:43:40.489Z,99291.44
2022-08-04T22:46:12.207Z,99310.84
2022-08-04T22:48:39.830Z,99260.84
2022-08-04T22:51:10.299Z,99300.75
2022-08-04T22:53:39.916Z,99301.84
2022-08-04T22:56:10.637Z,99278.16
2022-08-04T22:58:45.265Z,99300.88
2022-08-04T23:01:15.009Z,99241.13
2022-08-04T23:03:51.247Z,99287.81
2022-08-04T23:06:25.260Z,99269.53
2022-08-04T23:08:53.201Z,99325.69
2022-08-04T23:11:20.596Z,99275.50
2022-08-04T23:13:48.938Z,99297.03
2022-08-04T23:16:17.141Z,99306.34
2022-08-04T23:18:48.907Z,99330.28
2022-08-04T23:21:17.152Z,99319.19
2022-08-04T23:23:55.725Z,99313.69
2022-08-04T23:26:30.759Z,99320.97
2022-08-04T23:28:57.558Z,99312.13
2022-08-04T23:31:25.314Z,99330.72
2022-08-04T23:34:08.579Z,99338.59
2022-08-04T23:36:35.393Z,99340.75
2022-08-04T23:39:05.846Z,99331.25
2022-08-04T23:41:54.419Z,99310.59
2022-08-04T23:44:24.702Z,99329.69
2022-08-04T23:47:00.410Z,99316.22
2022-08-04T23:49:43.491Z,99319.63
2022-08-04T23:52:23.090Z,99322.63
2022-08-04T23:54:56.918Z,99262.91
2022-08-04T23:57:25.713Z,99228.41
